createdAt,value
2023-01-23T00:01:47.141Z,94923.00
2023-01-23T00:04:17.389Z,94922.00
2023-01-23T00:06:44.302Z,94917.00
2023-01-23T00:09:11.303Z,94918.00
2023-01-23T00:11:40.399Z,94904.00
2023-01-23T00:14:07.309Z,94907.00
2023-01-23T00:16:34.403Z,94905.00
2023-01-23T00:19:01.973Z,94897.00
2023-01-23T00:21:30.533Z,94903.00
2023-01-23T00:23:59.383Z,94900.00
2023-01-23T00:26:32.847Z,94894.00
2023-01-23T00:28:59.828Z,94899.00
2023-01-23T00:31:33.015Z,94895.00
2023-01-23T00:34:07.251Z,94908.00
2023-01-23T00:36:38.229Z,94914.00
2023-01-23T00:39:08.255Z,94901.00
2023-01-23T00:41:35.457Z,94891.00
2023-01-23T00:44:02.396Z,94899.00
2023-01-23T00:46:29.424Z,94902.00
2023-01-23T00:48:58.943Z,94902.00
2023-01-23T00:51:28.402Z,94902.00
2023-01-23T00:53:55.773Z,94903.00
2023-01-23T00:56:23.323Z,94908.00
2023-01-23T00:58:50.246Z,94897.00
2023-01-23T01:01:17.776Z,94901.00
2023-01-23T01:03:45.935Z,94897.00
2023-01-23T01:06:13.457Z,94905.00
2023-01-23T01:08:40.954Z,94902.00
2023-01-23T01:11:08.149Z,94908.00
2023-01-23T01:13:35.888Z,94918.00
2023-01-23T01:16:03.228Z,94904.00
2023-01-23T01:18:30.491Z,94926.00
2023-01-23T01:20:57.922Z,94914.00
2023-01-23T01:23:25.376Z,94930.00
2023-01-23T01:25:58.775Z,94928.00
2023-01-23T01:28:27.252Z,94936.00
2023-01-23T01:30:59.409Z,94929.00
2023-01-23T01:33:29.238Z,94924.00
2023-01-23T01:35:58.239Z,94940.00
2023-01-23T01:38:28.430Z,94932.00
2023-01-23T01:40:57.898Z,94947.00
2023-01-23T01:43:27.742Z,94945.00
2023-01-23T01:46:24.762Z,94955.00
2023-01-23T01:49:10.890Z,94960.00
2023-01-23T01:52:05.776Z,94954.00
2023-01-23T01:54:35.265Z,94951.00
2023-01-23T01:57:06.264Z,94946.00
2023-01-23T01:59:51.354Z,94932.00
2023-01-23T02:02:28.632Z,94923.00
2023-01-23T02:05:11.801Z,94932.00
2023-01-23T02:07:58.132Z,94923.00
2023-01-23T02:10:27.609Z,94915.00
2023-01-23T02:12:54.671Z,94924.00
2023-01-23T02:15:22.862Z,94917.00
2023-01-23T02:17:53.089Z,94919.00
2023-01-23T02:20:24.335Z,94918.00
2023-01-23T02:23:38.063Z,94924.00
2023-01-23T02:26:13.626Z,94922.00
2023-01-23T02:28:45.564Z,94925.00
2023-01-23T02:31:14.734Z,94930.00
2023-01-23T02:33:47.574Z,94939.00
2023-01-23T02:36:17.098Z,94941.00
2023-01-23T02:38:59.125Z,94938.00
2023-01-23T02:41:34.110Z,94939.00
2023-01-23T02:44:10.591Z,94935.00
2023-01-23T02:46:39.823Z,94939.00
2023-01-23T02:49:09.334Z,94937.00
2023-01-23T02:51:36.581Z,94925.00
2023-01-23T02:54:04.020Z,94926.00
2023-01-23T02:56:31.005Z,94929.00
2023-01-23T02:59:16.721Z,94920.00
2023-01-23T03:01:43.853Z,94921.00
2023-01-23T03:04:10.881Z,94921.00
2023-01-23T03:06:37.940Z,94926.00
2023-01-23T03:09:15.999Z,94929.00
2023-01-23T03:11:45.200Z,94936.00
2023-01-23T03:14:21.810Z,94917.00
2023-01-23T03:16:51.524Z,94923.00
2023-01-23T03:19:24.222Z,94925.00
2023-01-23T03:21:52.621Z,94928.00
2023-01-23T03:24:21.263Z,94935.00
2023-01-23T03:26:49.694Z,94932.00
2023-01-23T03:29:42.590Z,94931.00
2023-01-23T03:32:11.176Z,94932.00
2023-01-23T03:34:38.859Z,94931.00
2023-01-23T03:37:07.997Z,94945.00
2023-01-23T03:39:53.727Z,94949.00
2023-01-23T03:42:21.200Z,94926.00
2023-01-23T03:44:48.891Z,94955.00
2023-01-23T03:47:15.849Z,94945.00
2023-01-23T03:49:42.805Z,94927.00
2023-01-23T03:52:09.658Z,94934.00
2023-01-23T03:54:38.853Z,94938.00
2023-01-23T03:57:05.717Z,94954.00
2023-01-23T03:59:34.877Z,94945.00
2023-01-23T04:02:04.846Z,94950.00
2023-01-23T04:04:33.569Z,94940.00
2023-01-23T04:07:03.551Z,94947.00
2023-01-23T04:09:30.629Z,94933.00
2023-01-23T04:11:59.847Z,94945.00
2023-01-23T04:14:30.629Z,94948.00
2023-01-23T04:16:59.999Z,94940.00
2023-01-23T04:19:26.887Z,94941.00
2023-01-23T04:21:56.232Z,94941.00
2023-01-23T04:24:25.368Z,94957.00
2023-01-23T04:26:52.800Z,94945.00
2023-01-23T04:29:19.961Z,94951.00
2023-01-23T04:31:46.962Z,94946.00
2023-01-23T04:34:14.020Z,94950.00
2023-01-23T04:36:41.148Z,94939.00
2023-01-23T04:39:08.103Z,94940.00
2023-01-23T04:41:37.494Z,94946.00
2023-01-23T04:44:22.679Z,94947.00
2023-01-23T04:46:55.153Z,94954.00
2023-01-23T04:49:27.688Z,94948.00
2023-01-23T04:51:57.377Z,94949.00
2023-01-23T04:54:24.224Z,94954.00
2023-01-23T04:56:51.114Z,94953.00
2023-01-23T04:59:20.972Z,94955.00
2023-01-23T05:01:48.006Z,94953.00
2023-01-23T05:04:17.266Z,94945.00
2023-01-23T05:06:44.191Z,94950.00
2023-01-23T05:09:11.423Z,94938.00
2023-01-23T05:11:38.389Z,94935.00
2023-01-23T05:14:09.929Z,94937.00
2023-01-23T05:16:39.820Z,94930.00
2023-01-23T05:19:06.698Z,94921.00
2023-01-23T05:21:33.594Z,94930.00
2023-01-23T05:24:00.782Z,94929.00
2023-01-23T05:26:32.463Z,94925.00
2023-01-23T05:28:59.428Z,94932.00
2023-01-23T05:31:30.989Z,94924.00
2023-01-23T05:33:57.876Z,94932.00
2023-01-23T05:36:24.772Z,94935.00
2023-01-23T05:38:55.267Z,94939.00
2023-01-23T05:41:24.747Z,94950.00
2023-01-23T05:43:52.484Z,94935.00
2023-01-23T05:46:19.342Z,94923.00
2023-01-23T05:48:51.961Z,94937.00
2023-01-23T05:51:23.294Z,94947.00
2023-01-23T05:53:52.833Z,94946.00
2023-01-23T05:56:19.723Z,94953.00
2023-01-23T05:58:47.897Z,94961.00
2023-01-23T06:01:14.922Z,94959.00
2023-01-23T06:03:42.063Z,94953.00
2023-01-23T06:06:11.408Z,94965.00
2023-01-23T06:08:38.350Z,94962.00
2023-01-23T06:11:05.605Z,94979.00
2023-01-23T06:13:32.602Z,94972.00
2023-01-23T06:16:02.363Z,94976.00
2023-01-23T06:18:29.484Z,94976.00
2023-01-23T06:21:01.475Z,94983.00
2023-01-23T06:23:29.204Z,94989.00
2023-01-23T06:26:03.405Z,94991.00
2023-01-23T06:28:30.440Z,94988.00
2023-01-23T06:31:02.635Z,94996.00
2023-01-23T06:33:30.906Z,94997.00
2023-01-23T06:36:03.658Z,94993.00
2023-01-23T06:38:31.134Z,94998.00
2023-01-23T06:41:00.696Z,94993.00
2023-01-23T06:43:30.623Z,94998.00
2023-01-23T06:46:00.736Z,94992.00
2023-01-23T06:48:27.679Z,94999.00
2023-01-23T06:50:54.627Z,95000.00
2023-01-23T06:53:21.546Z,94997.00
2023-01-23T06:55:51.010Z,94995.00
2023-01-23T06:58:17.904Z,94990.00
2023-01-23T07:00:48.295Z,94994.00
2023-01-23T07:03:17.951Z,94997.00
2023-01-23T07:05:44.948Z,94991.00
2023-01-23T07:08:15.671Z,94999.00
2023-01-23T07:10:42.563Z,94999.00
2023-01-23T07:13:14.473Z,94997.00
2023-01-23T07:15:41.411Z,94995.00
2023-01-23T07:18:10.826Z,95007.00
2023-01-23T07:20:40.592Z,95000.00
2023-01-23T07:23:09.371Z,94997.00
2023-01-23T07:25:36.501Z,94995.00
2023-01-23T07:28:06.095Z,95000.00
2023-01-23T07:30:34.095Z,95000.00
2023-01-23T07:33:01.051Z,94999.00
2023-01-23T07:35:28.243Z,94994.00
2023-01-23T07:38:00.162Z,94998.00
2023-01-23T07:40:30.048Z,94996.00
2023-01-23T07:42:57.464Z,95010.00
2023-01-23T07:45:24.395Z,95015.00
2023-01-23T07:47:51.337Z,95020.00
2023-01-23T07:50:20.902Z,95013.00
2023-01-23T07:52:48.064Z,95018.00
2023-01-23T07:55:15.367Z,95014.00
2023-01-23T07:57:42.643Z,95018.00
2023-01-23T08:00:10.925Z,95010.00
2023-01-23T08:02:40.561Z,95016.00
2023-01-23T08:05:10.425Z,95017.00
2023-01-23T08:07:39.544Z,95031.00
2023-01-23T08:10:08.186Z,95025.00
2023-01-23T08:12:37.702Z,95036.00
2023-01-23T08:15:06.623Z,95034.00
2023-01-23T08:17:33.583Z,95027.00
2023-01-23T08:20:00.631Z,95036.00
2023-01-23T08:22:29.978Z,95027.00
2023-01-23T08:24:56.858Z,95033.00
2023-01-23T08:27:23.761Z,95026.00
2023-01-23T08:29:50.704Z,95039.00
2023-01-23T08:32:17.645Z,95029.00
2023-01-23T08:34:44.482Z,95047.00
2023-01-23T08:37:11.409Z,95022.00
2023-01-23T08:39:40.567Z,95019.00
2023-01-23T08:42:07.436Z,95030.00
2023-01-23T08:44:34.321Z,95021.00
2023-01-23T08:47:04.649Z,95022.00
2023-01-23T08:49:31.533Z,95009.00
2023-01-23T08:52:00.978Z,94998.00
2023-01-23T08:54:27.888Z,95001.00
2023-01-23T08:56:56.849Z,95002.00
2023-01-23T08:59:26.835Z,94990.00
2023-01-23T09:01:53.851Z,94995.00
2023-01-23T09:04:20.782Z,94996.00
2023-01-23T09:06:47.685Z,95011.00
2023-01-23T09:09:17.133Z,94995.00
2023-01-23T09:11:44.072Z,95005.00
2023-01-23T09:14:13.027Z,95003.00
2023-01-23T09:16:40.957Z,95008.00
2023-01-23T09:19:12.018Z,95011.00
2023-01-23T09:21:39.068Z,95015.00
2023-01-23T09:24:08.801Z,95019.00
2023-01-23T09:26:38.255Z,95016.00
2023-01-23T09:29:05.155Z,95020.00
2023-01-23T09:31:36.739Z,95027.00
2023-01-23T09:34:03.809Z,95028.00
2023-01-23T09:36:42.487Z,95023.00
2023-01-23T09:39:14.907Z,95023.00
2023-01-23T09:41:43.828Z,95030.00
2023-01-23T09:44:36.818Z,95027.00
2023-01-23T09:47:12.824Z,95019.00
2023-01-23T09:50:07.232Z,95022.00
2023-01-23T09:52:42.419Z,95006.00
2023-01-23T09:55:41.920Z,95018.00
2023-01-23T09:58:37.829Z,95016.00
2023-01-23T10:01:05.748Z,94999.00
2023-01-23T10:03:34.840Z,95005.00
2023-01-23T10:06:23.789Z,95001.00
2023-01-23T10:09:05.672Z,95004.00
2023-01-23T10:12:08.998Z,95009.00
2023-01-23T10:15:19.392Z,95009.00
2023-01-23T10:18:22.722Z,94997.00
2023-01-23T10:21:09.824Z,94989.00
2023-01-23T10:23:45.671Z,94990.00
2023-01-23T10:26:21.000Z,94999.00
2023-01-23T10:28:48.393Z,94990.00
2023-01-23T10:31:41.271Z,94997.00
2023-01-23T10:34:21.606Z,94983.00
2023-01-23T10:37:25.943Z,94988.00
2023-01-23T10:40:38.829Z,94987.00
2023-01-23T10:43:21.002Z,94998.00
2023-01-23T10:45:50.574Z,94993.00
2023-01-23T10:48:52.185Z,94979.00
2023-01-23T10:51:34.909Z,94987.00
2023-01-23T10:54:31.702Z,94959.00
2023-01-23T10:57:26.807Z,94969.00
2023-01-23T11:00:04.594Z,94963.00
2023-01-23T11:02:37.377Z,94979.00
2023-01-23T11:05:52.871Z,94978.00
2023-01-23T11:08:32.087Z,94967.00
2023-01-23T11:11:26.893Z,94956.00
2023-01-23T11:14:26.457Z,94956.00
2023-01-23T11:17:17.325Z,94934.00
2023-01-23T11:19:48.058Z,94935.00
2023-01-23T11:22:39.582Z,94939.00
2023-01-23T11:25:29.631Z,94940.00
2023-01-23T11:27:59.689Z,94937.00
2023-01-23T11:30:47.906Z,94930.00
2023-01-23T11:33:55.094Z,94928.00
2023-01-23T11:36:48.527Z,94915.00
2023-01-23T11:39:39.537Z,94917.00
2023-01-23T11:42:13.227Z,94914.00
2023-01-23T11:44:46.364Z,94914.00
2023-01-23T11:47:18.755Z,94911.00
2023-01-23T11:50:09.602Z,94905.00
2023-01-23T11:52:57.370Z,94905.00
2023-01-23T11:55:34.915Z,94900.00
2023-01-23T11:58:17.363Z,94902.00
2023-01-23T12:01:13.034Z,94896.00
2023-01-23T12:03:49.783Z,94896.00
2023-01-23T12:07:00.263Z,94883.00
2023-01-23T12:10:00.015Z,94890.00
2023-01-23T12:13:28.416Z,94878.00
2023-01-23T12:16:06.771Z,94871.00
2023-01-23T12:19:07.202Z,94877.00
2023-01-23T12:22:17.333Z,94868.00
2023-01-23T12:24:56.470Z,94867.00
2023-01-23T12:28:04.745Z,94868.00
2023-01-23T12:30:40.467Z,94854.00
2023-01-23T12:33:48.834Z,94860.00
2023-01-23T12:36:44.162Z,94838.00
2023-01-23T12:39:33.743Z,94844.00
2023-01-23T12:42:07.678Z,94834.00
2023-01-23T12:44:41.332Z,94841.00
2023-01-23T12:47:22.310Z,94838.00
2023-01-23T12:50:01.405Z,94849.00
2023-01-23T12:52:48.631Z,94842.00
2023-01-23T12:55:27.369Z,94853.00
2023-01-23T12:58:08.037Z,94853.00
2023-01-23T13:01:03.791Z,94861.00
2023-01-23T13:03:46.601Z,94858.00
2023-01-23T13:06:57.816Z,94847.00
2023-01-23T13:10:17.155Z,94857.00
2023-01-23T13:12:46.356Z,94856.00
2023-01-23T13:15:39.171Z,94852.00
2023-01-23T13:18:47.918Z,94845.00
2023-01-23T13:21:33.408Z,94841.00
2023-01-23T13:24:50.744Z,94836.00
2023-01-23T13:27:57.868Z,94830.00
2023-01-23T13:30:31.668Z,94834.00
2023-01-23T13:33:07.273Z,94837.00
2023-01-23T13:35:39.999Z,94835.00
2023-01-23T13:38:40.330Z,94837.00
2023-01-23T13:41:14.522Z,94849.00
2023-01-23T13:43:53.052Z,94845.00
2023-01-23T14:21:56.971Z,94850.00
2023-01-23T14:24:32.398Z,94844.00
2023-01-23T14:27:08.195Z,94843.00
2023-01-23T14:29:38.100Z,94844.00
2023-01-23T14:32:07.587Z,94837.00
2023-01-23T14:34:41.441Z,94840.00
2023-01-23T14:37:11.939Z,94839.00
2023-01-23T14:39:40.984Z,94847.00
2023-01-23T14:42:26.807Z,94852.00
2023-01-23T14:44:58.329Z,94861.00
2023-01-23T14:47:48.873Z,94854.00
2023-01-23T14:50:26.248Z,94867.00
2023-01-23T14:53:12.115Z,94863.00
2023-01-23T14:55:45.068Z,94872.00
2023-01-23T14:58:26.165Z,94872.00
2023-01-23T15:00:54.141Z,94871.00
2023-01-23T15:04:07.616Z,94875.00
2023-01-23T15:06:36.423Z,94877.00
2023-01-23T15:09:16.562Z,94878.00
2023-01-23T15:11:49.515Z,94872.00
2023-01-23T15:14:36.964Z,94878.00
2023-01-23T15:17:13.028Z,94878.00
2023-01-23T15:19:50.268Z,94877.00
2023-01-23T15:22:21.964Z,94871.00
2023-01-23T15:24:51.926Z,94880.00
2023-01-23T15:27:34.479Z,94876.00
2023-01-23T15:30:44.439Z,94879.00
2023-01-23T15:33:29.506Z,94861.00
2023-01-23T15:36:26.549Z,94858.00
2023-01-23T15:38:55.616Z,94862.00
2023-01-23T15:41:46.050Z,94867.00
2023-01-23T15:44:15.619Z,94868.00
2023-01-23T15:46:47.670Z,94856.00
2023-01-23T15:49:24.787Z,94861.00
2023-01-23T15:51:57.063Z,94873.00
2023-01-23T15:54:33.941Z,94865.00
2023-01-23T15:57:07.507Z,94861.00
2023-01-23T15:59:36.114Z,94875.00
2023-01-23T16:02:03.739Z,94869.00
2023-01-23T16:04:33.176Z,94868.00
2023-01-23T16:07:06.593Z,94872.00
2023-01-23T16:09:38.221Z,94865.00
2023-01-23T16:12:05.341Z,94867.00
2023-01-23T16:14:32.272Z,94868.00
2023-01-23T16:17:15.231Z,94878.00
2023-01-23T16:19:43.656Z,94872.00
2023-01-23T16:22:30.055Z,94873.00
2023-01-23T16:24:58.382Z,94885.00
2023-01-23T16:27:27.936Z,94883.00
2023-01-23T16:29:56.207Z,94873.00
2023-01-23T16:32:23.514Z,94886.00
2023-01-23T16:34:53.024Z,94885.00
2023-01-23T16:37:22.194Z,94886.00
2023-01-23T16:39:49.109Z,94894.00
2023-01-23T16:42:24.972Z,94876.00
2023-01-23T16:44:52.010Z,94880.00
2023-01-23T16:47:19.376Z,94895.00
2023-01-23T16:49:53.716Z,94892.00
2023-01-23T16:52:25.047Z,94902.00
2023-01-23T16:54:55.272Z,94899.00
2023-01-23T16:57:22.980Z,94902.00
2023-01-23T16:59:50.539Z,94901.00
2023-01-23T17:02:29.640Z,94907.00
2023-01-23T17:04:56.783Z,94907.00
2023-01-23T17:07:23.657Z,94909.00
2023-01-23T17:09:53.118Z,94907.00
2023-01-23T17:12:28.678Z,94912.00
2023-01-23T17:14:56.256Z,94912.00
2023-01-23T17:17:45.268Z,94890.00
2023-01-23T17:20:14.116Z,94892.00
2023-01-23T17:22:43.890Z,94903.00
2023-01-23T17:25:20.897Z,94914.00
2023-01-23T17:28:00.681Z,94922.00
2023-01-23T17:30:37.284Z,94911.00
2023-01-23T17:33:06.722Z,94909.00
2023-01-23T17:35:37.691Z,94904.00
2023-01-23T17:38:11.250Z,94901.00
2023-01-23T17:40:38.108Z,94905.00
2023-01-23T17:43:10.477Z,94886.00
2023-01-23T17:45:41.746Z,94902.00
2023-01-23T17:48:18.732Z,94896.00
2023-01-23T17:50:48.343Z,94900.00
2023-01-23T17:53:17.133Z,94905.00
2023-01-23T17:55:51.287Z,94904.00
2023-01-23T17:58:19.597Z,94901.00
2023-01-23T18:00:53.895Z,94899.00
2023-01-23T18:03:23.354Z,94908.00
2023-01-23T18:05:50.262Z,94903.00
2023-01-23T18:08:24.845Z,94905.00
2023-01-23T18:10:55.326Z,94917.00
2023-01-23T18:13:46.971Z,94911.00
2023-01-23T18:16:28.737Z,94908.00
2023-01-23T18:19:24.524Z,94918.00
2023-01-23T18:22:01.401Z,94908.00
2023-01-23T18:24:32.013Z,94908.00
2023-01-23T18:27:24.094Z,94913.00
2023-01-23T18:30:15.379Z,94919.00
2023-01-23T18:32:47.921Z,94917.00
2023-01-23T18:35:23.915Z,94908.00
2023-01-23T18:38:34.204Z,94904.00
2023-01-23T18:41:24.845Z,94905.00
2023-01-23T18:44:07.123Z,94901.00
2023-01-23T18:46:39.178Z,94891.00
2023-01-23T18:49:06.363Z,94902.00
2023-01-23T18:51:54.240Z,94920.00
2023-01-23T18:54:35.516Z,94918.00
2023-01-23T18:57:37.014Z,94933.00
2023-01-23T19:00:27.137Z,94920.00
2023-01-23T19:03:07.885Z,94918.00
2023-01-23T19:05:37.465Z,94929.00
2023-01-23T19:08:24.263Z,94915.00
2023-01-23T19:10:54.782Z,94913.00
2023-01-23T19:13:35.988Z,94918.00
2023-01-23T19:16:30.351Z,94902.00
2023-01-23T19:19:21.368Z,94910.00
2023-01-23T19:21:48.517Z,94917.00
2023-01-23T19:24:19.791Z,94913.00
2023-01-23T19:26:54.319Z,94920.00
2023-01-23T19:29:24.028Z,94920.00
2023-01-23T19:32:04.307Z,94928.00
2023-01-23T19:34:35.011Z,94932.00
2023-01-23T19:37:02.705Z,94935.00
2023-01-23T19:39:29.644Z,94945.00
2023-01-23T19:42:01.355Z,94942.00
2023-01-23T19:44:30.940Z,94952.00
2023-01-23T19:47:00.209Z,94954.00
2023-01-23T19:49:27.320Z,94945.00
2023-01-23T19:51:56.720Z,94937.00
2023-01-23T19:54:25.941Z,94934.00
2023-01-23T19:56:52.866Z,94940.00
2023-01-23T19:59:23.652Z,94941.00
2023-01-23T20:01:53.123Z,94946.00
2023-01-23T20:04:22.722Z,94953.00
2023-01-23T20:06:52.009Z,94956.00
2023-01-23T20:09:22.495Z,94956.00
2023-01-23T20:11:52.468Z,94956.00
2023-01-23T20:14:19.561Z,94954.00
2023-01-23T20:16:46.481Z,94955.00
2023-01-23T20:19:19.606Z,94939.00
2023-01-23T20:21:48.858Z,94963.00
2023-01-23T20:24:16.150Z,94963.00
2023-01-23T20:26:44.745Z,94962.00
2023-01-23T20:29:12.464Z,94970.00
2023-01-23T20:31:39.620Z,94972.00
2023-01-23T20:34:09.072Z,94977.00
2023-01-23T20:36:38.252Z,94968.00
2023-01-23T20:39:05.787Z,94965.00
2023-01-23T20:41:32.704Z,94976.00
2023-01-23T20:44:04.321Z,94967.00
2023-01-23T20:46:31.951Z,94968.00
2023-01-23T20:49:02.157Z,94971.00
2023-01-23T20:51:30.505Z,94971.00
2023-01-23T20:53:57.516Z,94973.00
2023-01-23T20:56:28.120Z,94989.00
2023-01-23T20:59:15.904Z,94986.00
2023-01-23T21:02:05.061Z,94979.00
2023-01-23T21:04:36.634Z,94982.00
2023-01-23T21:07:06.579Z,94987.00
2023-01-23T21:09:33.467Z,94984.00
2023-01-23T21:12:02.615Z,94987.00
2023-01-23T21:14:32.308Z,94989.00
2023-01-23T21:17:01.921Z,94974.00
2023-01-23T21:19:30.901Z,94987.00
2023-01-23T21:21:58.011Z,94989.00
2023-01-23T21:24:25.525Z,94995.00
2023-01-23T21:26:53.189Z,95002.00
2023-01-23T21:29:22.584Z,94993.00
2023-01-23T21:31:49.572Z,94999.00
2023-01-23T21:34:26.365Z,94999.00
2023-01-23T21:36:53.875Z,95013.00
2023-01-23T21:39:21.104Z,95009.00
2023-01-23T21:41:50.366Z,95003.00
2023-01-23T21:44:19.498Z,95009.00
2023-01-23T21:46:50.987Z,95005.00
2023-01-23T21:49:20.181Z,95015.00
2023-01-23T21:51:50.069Z,95004.00
2023-01-23T21:54:21.961Z,94999.00
2023-01-23T21:56:51.112Z,95001.00
2023-01-23T21:59:18.154Z,95011.00
2023-01-23T22:01:46.460Z,95003.00
2023-01-23T22:04:18.274Z,95000.00
2023-01-23T22:06:46.879Z,95005.00
2023-01-23T22:09:19.360Z,95002.00
2023-01-23T22:11:52.224Z,95009.00
2023-01-23T22:14:20.119Z,95018.00
2023-01-23T22:16:51.099Z,95012.00
2023-01-23T22:19:24.861Z,95015.00
2023-01-23T22:21:58.582Z,95012.00
2023-01-23T22:24:25.903Z,95011.00
2023-01-23T22:26:52.792Z,95019.00
2023-01-23T22:29:19.682Z,95010.00
2023-01-23T22:31:48.878Z,95017.00
2023-01-23T22:34:16.123Z,95017.00
2023-01-23T22:36:43.307Z,95022.00
2023-01-23T22:39:16.838Z,95022.00
2023-01-23T22:41:50.339Z,95015.00
2023-01-23T22:44:20.926Z,95028.00
2023-01-23T22:46:53.468Z,95023.00
2023-01-23T22:49:27.353Z,95013.00
2023-01-23T22:51:54.429Z,95018.00
2023-01-23T22:54:26.631Z,95019.00
2023-01-23T22:56:53.614Z,95006.00
2023-01-23T22:59:23.863Z,95001.00
2023-01-23T23:01:50.816Z,95013.00
2023-01-23T23:04:17.815Z,94998.00
2023-01-23T23:06:44.749Z,95010.00
2023-01-23T23:09:14.131Z,95008.00
2023-01-23T23:11:50.073Z,95018.00
2023-01-23T23:14:17.112Z,95013.00
2023-01-23T23:16:49.075Z,95007.00
2023-01-23T23:19:18.291Z,95013.00
2023-01-23T23:21:45.386Z,95020.00
2023-01-23T23:24:15.816Z,95023.00
2023-01-23T23:26:45.016Z,95022.00
2023-01-23T23:29:17.513Z,95015.00
2023-01-23T23:31:44.531Z,95010.00
2023-01-23T23:34:16.287Z,95026.00
2023-01-23T23:36:45.618Z,95022.00
2023-01-23T23:39:13.339Z,95020.00
2023-01-23T23:41:42.717Z,95025.00
2023-01-23T23:44:10.039Z,95030.00
2023-01-23T23:46:36.951Z,95031.00
2023-01-23T23:49:03.927Z,95027.00
2023-01-23T23:51:31.066Z,95036.00
2023-01-23T23:54:00.210Z,95023.00
2023-01-23T23:56:32.116Z,95033.00
2023-01-23T23:59:01.645Z,95028.00
